createdAt,value
2022-12-20T00:02:55.376Z,4.37
2022-12-20T00:05:58.403Z,4.37
2022-12-20T00:09:03.393Z,4.39
2022-12-20T00:12:06.424Z,4.41
2022-12-20T00:15:09.960Z,4.36
2022-12-20T00:18:12.511Z,4.28
2022-12-20T00:21:15.779Z,4.26
2022-12-20T00:24:25.883Z,4.27
2022-12-20T00:27:29.137Z,4.17
2022-12-20T00:30:31.762Z,4.03
2022-12-20T00:33:34.584Z,3.92
2022-12-20T00:36:37.289Z,3.97
2022-12-20T00:39:41.283Z,4.02
2022-12-20T00:42:43.820Z,4.00
2022-12-20T00:45:46.398Z,4.14
2022-12-20T00:48:49.051Z,4.23
2022-12-20T00:51:51.681Z,4.27
2022-12-20T00:54:55.638Z,4.44
2022-12-20T00:57:58.084Z,4.38
2022-12-20T01:01:00.852Z,4.40
2022-12-20T01:04:04.376Z,4.40
2022-12-20T01:07:06.971Z,4.45
2022-12-20T01:10:12.107Z,4.44
2022-12-20T01:13:14.849Z,4.46
2022-12-20T01:16:19.896Z,4.50
2022-12-20T01:19:22.639Z,4.49
2022-12-20T01:22:25.344Z,4.51
2022-12-20T01:25:29.412Z,4.49
2022-12-20T01:28:33.096Z,4.45
2022-12-20T01:31:36.621Z,4.45
2022-12-20T01:34:39.394Z,4.43
2022-12-20T01:37:42.063Z,4.47
2022-12-20T01:40:46.058Z,4.43
2022-12-20T01:43:52.054Z,4.52
2022-12-20T01:46:55.537Z,4.52
2022-12-20T01:50:00.033Z,4.50
2022-12-20T01:53:04.235Z,4.66
2022-12-20T01:56:08.971Z,4.59
2022-12-20T01:59:12.318Z,4.57
2022-12-20T02:02:15.207Z,4.63
2022-12-20T02:05:20.206Z,4.70
2022-12-20T02:08:22.844Z,4.65
2022-12-20T02:11:47.485Z,4.63
2022-12-20T02:15:06.708Z,4.56
2022-12-20T02:18:18.108Z,4.54
2022-12-20T02:21:29.423Z,4.50
2022-12-20T02:24:49.054Z,4.52
2022-12-20T02:28:00.865Z,4.53
2022-12-20T02:31:08.892Z,4.54
2022-12-20T02:34:12.196Z,4.41
2022-12-20T02:37:14.856Z,4.28
2022-12-20T02:40:19.870Z,4.33
2022-12-20T02:43:37.447Z,4.32
2022-12-20T02:46:41.738Z,4.32
2022-12-20T02:49:45.819Z,4.37
2022-12-20T02:52:48.753Z,4.38
2022-12-20T02:55:55.707Z,4.38
2022-12-20T02:59:04.063Z,4.36
2022-12-20T03:02:08.833Z,4.36
2022-12-20T03:05:11.685Z,4.40
2022-12-20T03:08:14.297Z,4.42
2022-12-20T03:11:16.907Z,4.45
2022-12-20T03:14:19.761Z,4.49
2022-12-20T03:17:26.660Z,4.50
2022-12-20T03:20:29.331Z,4.53
2022-12-20T03:23:32.166Z,4.64
2022-12-20T03:26:34.819Z,4.60
2022-12-20T03:29:37.378Z,4.69
2022-12-20T03:32:41.486Z,4.72
2022-12-20T03:35:44.077Z,4.69
2022-12-20T03:38:47.236Z,4.67
2022-12-20T03:41:49.856Z,4.66
2022-12-20T03:44:52.539Z,4.65
2022-12-20T03:47:56.568Z,4.62
2022-12-20T03:50:59.088Z,4.69
2022-12-20T03:54:01.716Z,4.70
2022-12-20T03:57:04.434Z,4.67
2022-12-20T04:00:08.477Z,4.61
2022-12-20T04:03:12.638Z,4.64
2022-12-20T04:06:15.878Z,4.69
2022-12-20T04:09:18.822Z,4.75
2022-12-20T04:12:22.038Z,4.79
2022-12-20T04:15:24.748Z,4.81
2022-12-20T04:18:29.582Z,4.82
2022-12-20T04:21:33.782Z,4.89
2022-12-20T04:24:36.391Z,5.02
2022-12-20T04:27:38.961Z,5.00
2022-12-20T04:30:41.623Z,5.03
2022-12-20T04:33:46.266Z,5.00
2022-12-20T04:36:48.870Z,5.04
2022-12-20T04:39:51.448Z,5.06
2022-12-20T04:42:54.019Z,5.11
2022-12-20T04:45:57.339Z,5.11
2022-12-20T04:49:02.786Z,5.11
2022-12-20T04:52:19.828Z,5.11
2022-12-20T04:55:23.122Z,5.11
2022-12-20T04:58:25.762Z,5.09
2022-12-20T05:01:28.557Z,5.05
2022-12-20T05:04:37.339Z,5.15
2022-12-20T05:07:40.521Z,5.25
2022-12-20T05:10:43.465Z,5.28
2022-12-20T05:13:46.154Z,5.33
2022-12-20T05:16:48.910Z,5.42
2022-12-20T05:19:52.872Z,5.31
2022-12-20T05:23:13.114Z,5.30
2022-12-20T05:26:18.648Z,5.35
2022-12-20T05:29:21.310Z,5.38
2022-12-20T05:32:23.900Z,5.41
2022-12-20T05:35:28.046Z,5.41
2022-12-20T05:38:31.402Z,5.53
2022-12-20T05:41:34.332Z,5.50
2022-12-20T05:44:37.082Z,5.50
2022-12-20T05:47:39.602Z,5.44
2022-12-20T05:50:45.192Z,5.53
2022-12-20T05:53:47.829Z,5.51
2022-12-20T05:56:50.384Z,5.45
2022-12-20T05:59:53.098Z,5.36
2022-12-20T06:02:55.951Z,5.28
2022-12-20T06:06:00.124Z,5.17
2022-12-20T06:09:02.939Z,5.13
2022-12-20T06:12:06.448Z,5.04
2022-12-20T06:15:10.832Z,5.02
2022-12-20T06:18:13.732Z,5.13
2022-12-20T06:21:17.957Z,5.17
2022-12-20T06:24:21.403Z,5.23
2022-12-20T06:27:24.130Z,5.29
2022-12-20T06:30:33.414Z,5.26
2022-12-20T06:33:36.631Z,5.30
2022-12-20T06:36:40.923Z,5.30
2022-12-20T06:39:43.619Z,5.31
2022-12-20T06:42:46.267Z,5.28
2022-12-20T06:45:48.849Z,5.32
2022-12-20T06:48:51.511Z,5.33
2022-12-20T06:51:56.280Z,5.37
2022-12-20T06:54:58.884Z,5.50
2022-12-20T06:58:01.473Z,5.56
2022-12-20T07:01:04.220Z,5.30
2022-12-20T07:04:06.888Z,5.26
2022-12-20T07:07:11.059Z,5.48
2022-12-20T07:10:14.005Z,5.52
2022-12-20T07:13:16.871Z,5.67
2022-12-20T07:16:19.530Z,5.63
2022-12-20T07:19:22.783Z,5.62
2022-12-20T07:22:26.741Z,5.58
2022-12-20T07:25:29.712Z,5.55
2022-12-20T07:28:32.718Z,5.60
2022-12-20T07:31:35.616Z,5.60
2022-12-20T07:34:38.620Z,5.64
2022-12-20T07:37:42.743Z,5.71
2022-12-20T07:40:45.395Z,5.78
2022-12-20T07:43:48.332Z,5.89
2022-12-20T07:46:51.155Z,5.99
2022-12-20T07:49:54.153Z,6.02
2022-12-20T07:52:58.878Z,6.08
2022-12-20T07:56:02.443Z,6.12
2022-12-20T07:59:05.330Z,6.18
2022-12-20T08:02:09.094Z,6.31
2022-12-20T08:05:11.638Z,6.30
2022-12-20T08:08:16.700Z,6.46
2022-12-20T08:11:19.918Z,6.50
2022-12-20T08:14:22.816Z,6.61
2022-12-20T08:17:25.545Z,6.64
2022-12-20T08:20:28.248Z,6.80
2022-12-20T08:23:32.186Z,6.90
2022-12-20T08:26:38.994Z,6.92
2022-12-20T08:29:41.731Z,6.95
2022-12-20T08:32:44.416Z,6.96
2022-12-20T08:35:47.362Z,7.09
2022-12-20T08:38:51.278Z,7.06
2022-12-20T08:41:53.917Z,7.06
2022-12-20T08:44:56.732Z,7.10
2022-12-20T08:47:59.393Z,7.25
2022-12-20T08:51:03.656Z,7.47
2022-12-20T08:54:08.460Z,7.80
2022-12-20T08:57:11.178Z,8.04
2022-12-20T09:00:15.080Z,8.22
2022-12-20T09:03:18.073Z,8.44
2022-12-20T09:06:22.426Z,8.33
2022-12-20T09:09:26.456Z,8.26
2022-12-20T09:12:29.113Z,8.13
2022-12-20T09:15:31.860Z,8.08
2022-12-20T09:18:35.390Z,8.16
2022-12-20T09:21:38.007Z,8.34
2022-12-20T09:24:42.012Z,8.39
2022-12-20T09:27:45.089Z,8.32
2022-12-20T09:30:47.777Z,8.15
2022-12-20T09:33:51.192Z,8.28
2022-12-20T09:36:53.799Z,8.30
2022-12-20T09:39:58.172Z,8.36
2022-12-20T09:43:01.137Z,8.33
2022-12-20T09:46:05.187Z,8.41
2022-12-20T09:49:08.066Z,8.30
2022-12-20T09:52:42.087Z,8.44
2022-12-20T09:55:54.052Z,8.81
2022-12-20T09:59:00.982Z,9.01
2022-12-20T10:02:19.524Z,9.01
2022-12-20T10:05:34.266Z,9.13
2022-12-20T10:08:46.344Z,9.01
2022-12-20T10:11:59.271Z,8.91
2022-12-20T10:15:09.587Z,8.91
2022-12-20T10:18:23.104Z,9.07
2022-12-20T10:21:31.525Z,8.97
2022-12-20T10:24:35.762Z,8.88
2022-12-20T10:27:41.854Z,9.04
2022-12-20T10:30:45.297Z,9.32
2022-12-20T10:33:48.047Z,9.34
2022-12-20T10:36:52.530Z,9.28
2022-12-20T10:39:55.217Z,9.33
2022-12-20T10:42:59.614Z,9.28
2022-12-20T10:46:05.047Z,9.12
2022-12-20T10:49:32.784Z,9.06
2022-12-20T10:52:35.447Z,9.03
2022-12-20T10:55:40.103Z,9.09
2022-12-20T10:58:44.384Z,8.95
2022-12-20T11:01:48.623Z,8.90
2022-12-20T11:05:00.438Z,9.01
2022-12-20T11:11:33.334Z,9.51
2022-12-20T11:14:39.895Z,9.59
2022-12-20T11:17:46.531Z,9.72
2022-12-20T11:20:55.531Z,9.81
2022-12-20T11:24:04.401Z,9.83
2022-12-20T11:27:19.629Z,9.93
2022-12-20T11:30:27.167Z,9.95
2022-12-20T11:33:38.192Z,10.10
2022-12-20T11:37:03.512Z,10.27
2022-12-20T11:40:20.303Z,10.30
2022-12-20T11:44:08.133Z,10.23
2022-12-20T11:47:26.907Z,10.27
2022-12-20T11:50:45.496Z,10.06
2022-12-20T11:53:53.663Z,9.98
2022-12-20T11:57:01.633Z,9.89
2022-12-20T12:00:06.506Z,9.89
2022-12-20T12:03:15.215Z,9.89
2022-12-20T12:06:21.822Z,10.03
2022-12-20T12:09:28.204Z,9.92
2022-12-20T12:12:34.297Z,9.87
2022-12-20T12:15:41.963Z,10.00
2022-12-20T12:18:46.298Z,9.84
2022-12-20T12:21:51.413Z,9.78
2022-12-20T12:24:56.272Z,9.64
2022-12-20T12:27:59.338Z,9.92
2022-12-20T12:31:06.956Z,9.89
2022-12-20T12:34:20.367Z,9.90
2022-12-20T12:37:49.953Z,9.97
2022-12-20T12:41:34.020Z,10.24
2022-12-20T12:44:45.646Z,10.60
2022-12-20T12:47:51.210Z,10.66
2022-12-20T12:50:57.588Z,10.76
2022-12-20T12:54:13.617Z,10.58
2022-12-20T12:57:17.653Z,10.72
2022-12-20T13:00:50.735Z,10.76
2022-12-20T13:04:24.319Z,10.74
2022-12-20T13:07:31.040Z,10.52
2022-12-20T13:11:01.076Z,10.58
2022-12-20T13:14:36.077Z,10.43
2022-12-20T13:17:51.482Z,10.34
2022-12-20T13:21:19.899Z,10.45
2022-12-20T13:24:53.166Z,10.46
2022-12-20T13:28:34.347Z,10.48
2022-12-20T13:31:38.410Z,10.40
2022-12-20T13:34:55.496Z,10.08
2022-12-20T13:38:01.920Z,9.91
2022-12-20T13:41:13.015Z,9.87
2022-12-20T13:44:42.633Z,9.80
2022-12-20T13:47:49.605Z,9.73
2022-12-20T13:50:53.153Z,9.61
2022-12-20T13:53:57.269Z,9.60
2022-12-20T13:57:00.054Z,9.53
2022-12-20T14:00:07.789Z,9.68
2022-12-20T14:03:20.895Z,9.66
2022-12-20T14:06:27.143Z,9.64
2022-12-20T14:09:33.959Z,9.61
2022-12-20T14:12:37.233Z,9.79
2022-12-20T14:15:41.085Z,9.91
2022-12-20T14:18:49.595Z,10.09
2022-12-20T14:21:52.379Z,10.18
2022-12-20T14:24:55.287Z,10.28
2022-12-20T14:27:58.774Z,10.15
2022-12-20T14:31:03.492Z,10.03
2022-12-20T14:34:13.793Z,9.92
2022-12-20T14:37:28.960Z,9.84
2022-12-20T14:40:31.642Z,9.64
2022-12-20T14:43:37.645Z,9.57
2022-12-20T14:46:46.916Z,9.61
2022-12-20T14:49:56.055Z,9.52
2022-12-20T14:52:59.011Z,9.39
2022-12-20T14:56:01.689Z,9.37
2022-12-20T14:59:15.791Z,9.31
2022-12-20T15:02:41.111Z,9.23
2022-12-20T15:05:48.218Z,9.16
2022-12-20T15:08:50.936Z,9.15
2022-12-20T15:11:54.151Z,9.08
2022-12-20T15:15:03.691Z,9.04
2022-12-20T15:18:21.697Z,8.97
2022-12-20T15:21:29.652Z,8.87
2022-12-20T15:24:33.388Z,8.81
2022-12-20T15:27:35.913Z,8.74
2022-12-20T15:30:38.583Z,8.68
2022-12-20T15:33:42.955Z,8.64
2022-12-20T15:36:47.103Z,8.64
2022-12-20T15:39:49.793Z,8.63
2022-12-20T15:42:52.863Z,8.62
2022-12-20T15:45:55.743Z,8.68
2022-12-20T15:48:58.750Z,8.65
2022-12-20T15:52:02.649Z,8.58
2022-12-20T15:55:07.026Z,8.75
2022-12-20T15:58:09.956Z,8.83
2022-12-20T16:01:15.469Z,8.77
2022-12-20T16:04:19.765Z,8.72
2022-12-20T16:07:24.173Z,8.64
2022-12-20T16:10:26.748Z,8.65
2022-12-20T16:13:29.360Z,8.57
2022-12-20T16:16:34.178Z,8.62
2022-12-20T16:19:36.788Z,8.49
2022-12-20T16:22:40.645Z,8.56
2022-12-20T16:25:43.216Z,8.62
2022-12-20T16:28:47.833Z,8.58
2022-12-20T16:31:51.487Z,8.56
2022-12-20T16:34:54.137Z,8.51
2022-12-20T16:37:59.328Z,8.47
2022-12-20T16:41:12.464Z,8.52
2022-12-20T16:44:16.529Z,8.49
2022-12-20T16:47:19.184Z,8.42
2022-12-20T16:50:23.435Z,8.40
2022-12-20T16:53:27.318Z,8.38
2022-12-20T16:56:30.565Z,8.39
2022-12-20T16:59:33.255Z,8.38
2022-12-20T17:02:36.176Z,8.41
2022-12-20T17:05:39.604Z,8.46
2022-12-20T17:12:06.497Z,8.48
2022-12-20T17:15:16.901Z,8.62
2022-12-20T17:18:19.429Z,8.66
2022-12-20T17:21:26.327Z,8.72
2022-12-20T17:24:30.493Z,8.75
2022-12-20T17:27:33.291Z,8.72
2022-12-20T17:30:35.932Z,8.81
2022-12-20T17:33:38.636Z,8.85
2022-12-20T17:36:41.205Z,8.82
2022-12-20T17:39:45.220Z,8.87
2022-12-20T17:42:47.981Z,8.92
2022-12-20T17:45:50.689Z,8.96
2022-12-20T17:48:53.522Z,9.03
2022-12-20T17:51:57.088Z,9.12
2022-12-20T17:55:00.996Z,9.06
2022-12-20T17:58:03.683Z,9.09
2022-12-20T18:01:06.740Z,9.08
2022-12-20T18:04:11.649Z,9.00
2022-12-20T18:07:14.458Z,9.05
2022-12-20T18:10:18.532Z,9.05
2022-12-20T18:13:21.360Z,9.02
2022-12-20T18:16:26.221Z,9.08
2022-12-20T18:19:29.243Z,9.08
2022-12-20T18:22:33.908Z,8.99
2022-12-20T18:25:37.894Z,8.98
2022-12-20T18:28:42.658Z,8.89
2022-12-20T18:31:45.388Z,8.86
2022-12-20T18:34:48.809Z,8.93
2022-12-20T18:37:51.492Z,8.90
2022-12-20T18:40:55.494Z,8.83
2022-12-20T18:43:59.871Z,8.86
2022-12-20T18:47:03.846Z,9.00
2022-12-20T18:50:08.082Z,8.99
2022-12-20T18:53:10.922Z,8.94
2022-12-20T18:56:16.923Z,8.93
2022-12-20T18:59:21.172Z,8.91
2022-12-20T19:02:23.857Z,8.77
2022-12-20T19:05:26.621Z,8.91
2022-12-20T19:08:30.140Z,8.73
2022-12-20T19:11:34.517Z,8.81
2022-12-20T19:14:37.750Z,8.79
2022-12-20T19:17:40.363Z,8.79
2022-12-20T19:20:43.421Z,8.83
2022-12-20T19:23:47.715Z,8.85
2022-12-20T19:26:51.729Z,8.96
2022-12-20T19:29:54.505Z,8.95
2022-12-20T19:32:57.132Z,8.97
2022-12-20T19:35:59.868Z,8.92
2022-12-20T19:39:03.531Z,8.85
2022-12-20T19:42:23.547Z,8.81
2022-12-20T19:45:27.224Z,8.77
2022-12-20T19:48:30.286Z,8.75
2022-12-20T19:51:33.272Z,8.68
2022-12-20T19:54:36.138Z,8.67
2022-12-20T19:57:40.426Z,8.71
2022-12-20T20:00:43.739Z,8.70
2022-12-20T20:03:46.618Z,8.74
2022-12-20T20:06:49.185Z,8.70
2022-12-20T20:09:51.788Z,8.71
2022-12-20T20:12:55.714Z,8.71
2022-12-20T20:15:59.864Z,8.83
2022-12-20T20:19:02.640Z,8.84
2022-12-20T20:22:06.568Z,8.83
2022-12-20T20:25:09.924Z,8.88
2022-12-20T20:28:14.212Z,8.98
2022-12-20T20:31:17.958Z,9.03
2022-12-20T20:34:21.720Z,9.04
2022-12-20T20:37:31.796Z,8.93
2022-12-20T20:40:35.437Z,8.94
2022-12-20T20:43:40.149Z,8.83
2022-12-20T20:46:43.679Z,8.75
2022-12-20T20:49:47.165Z,8.70
2022-12-20T20:52:56.043Z,8.69
2022-12-20T20:55:58.827Z,8.66
2022-12-20T20:59:08.120Z,8.69
2022-12-20T21:02:14.732Z,8.68
2022-12-20T21:08:40.981Z,8.53
2022-12-20T21:11:43.838Z,8.43
2022-12-20T21:15:20.869Z,8.34
2022-12-20T21:18:10.512Z,8.29
2022-12-20T21:21:13.944Z,8.33
2022-12-20T21:24:16.869Z,8.36
2022-12-20T21:27:19.985Z,8.28
2022-12-20T21:30:24.127Z,8.22
2022-12-20T21:33:26.696Z,8.19
2022-12-20T21:36:29.405Z,8.09
2022-12-20T21:39:31.971Z,7.94
2022-12-20T21:42:34.505Z,7.79
2022-12-20T21:45:38.350Z,7.82
2022-12-20T21:48:41.488Z,7.84
2022-12-20T21:51:43.994Z,7.96
2022-12-20T21:54:46.545Z,7.92
2022-12-20T21:57:49.143Z,7.90
2022-12-20T22:00:54.987Z,7.86
2022-12-20T22:04:00.109Z,7.83
2022-12-20T22:07:02.683Z,7.76
2022-12-20T22:10:05.764Z,7.83
2022-12-20T22:13:08.376Z,7.83
2022-12-20T22:16:15.360Z,7.90
2022-12-20T22:19:18.103Z,8.03
2022-12-20T22:22:21.063Z,8.06
2022-12-20T22:25:24.222Z,8.11
2022-12-20T22:28:26.804Z,8.12
2022-12-20T22:31:31.408Z,8.25
2022-12-20T22:34:34.412Z,8.27
2022-12-20T22:37:36.988Z,8.27
2022-12-20T22:40:39.473Z,8.26
2022-12-20T22:43:43.141Z,8.25
2022-12-20T22:46:46.876Z,8.26
2022-12-20T22:49:49.464Z,8.28
2022-12-20T22:52:52.258Z,8.25
2022-12-20T22:55:55.208Z,8.25
2022-12-20T22:58:57.823Z,8.19
2022-12-20T23:02:04.738Z,8.20
2022-12-20T23:05:08.461Z,8.24
2022-12-20T23:08:10.876Z,8.26
2022-12-20T23:11:35.720Z,8.30
2022-12-20T23:15:01.753Z,8.23
2022-12-20T23:18:07.799Z,8.27
2022-12-20T23:21:28.539Z,8.44
2022-12-20T23:24:31.201Z,8.43
2022-12-20T23:27:33.987Z,8.45
2022-12-20T23:30:36.558Z,8.43
2022-12-20T23:33:40.674Z,8.42
2022-12-20T23:36:43.272Z,8.48
2022-12-20T23:39:45.829Z,8.58
2022-12-20T23:42:48.639Z,8.53
2022-12-20T23:45:51.258Z,8.56
2022-12-20T23:48:55.168Z,8.66
2022-12-20T23:51:57.820Z,8.53
2022-12-20T23:55:00.504Z,8.53
2022-12-20T23:58:03.054Z,8.47
